sensor_id;sensor_type;location;lat;lon;timestamp;P1;durP1;ratioP1;P2;durP2;ratioP2
28724;SDS011;43472;48.980;9.646;2022-10-16T00:00:40;8.55;;;1.73;;
28724;SDS011;43472;48.980;9.646;2022-10-16T00:05:43;25.83;;;9.80;;
28724;SDS011;43472;48.980;9.646;2022-10-16T00:10:46;46.30;;;23.05;;
28724;SDS011;43472;48.980;9.646;2022-10-16T00:15:48;43.47;;;25.50;;
28724;SDS011;43472;48.980;9.646;2022-10-16T00:20:50;30.08;;;14.75;;
28724;SDS011;43472;48.980;9.646;2022-10-16T00:25:57;22.88;;;12.52;;
28724;SDS011;43472;48.980;9.646;2022-10-16T00:31:02;21.45;;;12.32;;
28724;SDS011;43472;48.980;9.646;2022-10-16T00:36:09;7.72;;;4.53;;
28724;SDS011;43472;48.980;9.646;2022-10-16T00:41:15;5.80;;;3.10;;
28724;SDS011;43472;48.980;9.646;2022-10-16T00:46:22;3.92;;;2.33;;
28724;SDS011;43472;48.980;9.646;2022-10-16T00:51:25;6.90;;;3.10;;
28724;SDS011;43472;48.980;9.646;2022-10-16T00:56:32;10.60;;;2.67;;
28724;SDS011;43472;48.980;9.646;2022-10-16T01:01:35;7.00;;;3.63;;
28724;SDS011;43472;48.980;9.646;2022-10-16T01:06:43;4.13;;;3.08;;
28724;SDS011;43472;48.980;9.646;2022-10-16T01:12:09;11.98;;;3.03;;
28724;SDS011;43472;48.980;9.646;2022-10-16T01:17:17;3.97;;;2.70;;
28724;SDS011;43472;48.980;9.646;2022-10-16T01:22:24;5.65;;;1.98;;
28724;SDS011;43472;48.980;9.646;2022-10-16T01:27:27;4.57;;;1.90;;
28724;SDS011;43472;48.980;9.646;2022-10-16T01:32:33;7.00;;;2.28;;
28724;SDS011;43472;48.980;9.646;2022-10-16T01:37:48;5.47;;;1.50;;
28724;SDS011;43472;48.980;9.646;2022-10-16T01:42:52;9.98;;;1.40;;
28724;SDS011;43472;48.980;9.646;2022-10-16T01:48:17;7.72;;;1.75;;
28724;SDS011;43472;48.980;9.646;2022-10-16T01:53:20;6.43;;;2.53;;
28724;SDS011;43472;48.980;9.646;2022-10-16T01:58:25;7.38;;;3.03;;
28724;SDS011;43472;48.980;9.646;2022-10-16T02:03:31;10.95;;;1.92;;
28724;SDS011;43472;48.980;9.646;2022-10-16T02:08:35;7.15;;;1.35;;
28724;SDS011;43472;48.980;9.646;2022-10-16T02:13:48;11.30;;;1.70;;
28724;SDS011;43472;48.980;9.646;2022-10-16T02:18:54;5.85;;;1.50;;
28724;SDS011;43472;48.980;9.646;2022-10-16T02:29:40;8.18;;;1.55;;
28724;SDS011;43472;48.980;9.646;2022-10-16T02:34:46;11.05;;;2.65;;
28724;SDS011;43472;48.980;9.646;2022-10-16T02:39:50;8.23;;;3.15;;
28724;SDS011;43472;48.980;9.646;2022-10-16T02:44:52;7.55;;;3.22;;
28724;SDS011;43472;48.980;9.646;2022-10-16T02:49:54;18.85;;;2.67;;
28724;SDS011;43472;48.980;9.646;2022-10-16T02:54:56;5.43;;;1.50;;
28724;SDS011;43472;48.980;9.646;2022-10-16T02:59:58;3.22;;;1.38;;
28724;SDS011;43472;48.980;9.646;2022-10-16T03:05:00;11.88;;;5.65;;
28724;SDS011;43472;48.980;9.646;2022-10-16T03:10:02;5.32;;;3.50;;
28724;SDS011;43472;48.980;9.646;2022-10-16T03:15:04;11.02;;;3.00;;
28724;SDS011;43472;48.980;9.646;2022-10-16T03:20:06;10.23;;;2.50;;
28724;SDS011;43472;48.980;9.646;2022-10-16T03:25:08;10.30;;;2.65;;
28724;SDS011;43472;48.980;9.646;2022-10-16T03:30:10;3.75;;;2.47;;
28724;SDS011;43472;48.980;9.646;2022-10-16T03:35:12;21.10;;;7.00;;
28724;SDS011;43472;48.980;9.646;2022-10-16T03:40:14;20.02;;;7.60;;
28724;SDS011;43472;48.980;9.646;2022-10-16T03:45:16;16.33;;;5.95;;
28724;SDS011;43472;48.980;9.646;2022-10-16T03:50:19;5.03;;;2.60;;
28724;SDS011;43472;48.980;9.646;2022-10-16T03:55:21;8.13;;;2.38;;
28724;SDS011;43472;48.980;9.646;2022-10-16T04:00:23;7.45;;;1.40;;
28724;SDS011;43472;48.980;9.646;2022-10-16T04:05:25;8.23;;;1.35;;
28724;SDS011;43472;48.980;9.646;2022-10-16T04:10:27;4.32;;;1.30;;
28724;SDS011;43472;48.980;9.646;2022-10-16T04:15:29;6.15;;;1.75;;
28724;SDS011;43472;48.980;9.646;2022-10-16T04:20:31;10.63;;;1.58;;
28724;SDS011;43472;48.980;9.646;2022-10-16T04:25:33;3.08;;;1.13;;
28724;SDS011;43472;48.980;9.646;2022-10-16T04:30:37;3.35;;;0.85;;
28724;SDS011;43472;48.980;9.646;2022-10-16T04:35:39;7.15;;;1.20;;
28724;SDS011;43472;48.980;9.646;2022-10-16T04:40:41;6.88;;;2.03;;
28724;SDS011;43472;48.980;9.646;2022-10-16T04:45:43;11.18;;;3.55;;
28724;SDS011;43472;48.980;9.646;2022-10-16T04:50:45;9.70;;;2.72;;
28724;SDS011;43472;48.980;9.646;2022-10-16T04:55:53;20.83;;;7.75;;
28724;SDS011;43472;48.980;9.646;2022-10-16T05:00:54;9.20;;;5.15;;
28724;SDS011;43472;48.980;9.646;2022-10-16T05:05:56;16.65;;;4.78;;
28724;SDS011;43472;48.980;9.646;2022-10-16T05:10:58;6.03;;;4.00;;
28724;SDS011;43472;48.980;9.646;2022-10-16T05:16:01;22.73;;;10.05;;
28724;SDS011;43472;48.980;9.646;2022-10-16T05:21:02;23.38;;;11.50;;
28724;SDS011;43472;48.980;9.646;2022-10-16T05:26:04;29.30;;;11.85;;
28724;SDS011;43472;48.980;9.646;2022-10-16T05:31:06;22.85;;;9.73;;
28724;SDS011;43472;48.980;9.646;2022-10-16T05:36:09;15.90;;;7.75;;
28724;SDS011;43472;48.980;9.646;2022-10-16T05:41:11;9.23;;;4.07;;
28724;SDS011;43472;48.980;9.646;2022-10-16T05:46:13;10.18;;;2.28;;
28724;SDS011;43472;48.980;9.646;2022-10-16T05:51:16;4.57;;;1.58;;
28724;SDS011;43472;48.980;9.646;2022-10-16T05:56:17;5.55;;;2.45;;
28724;SDS011;43472;48.980;9.646;2022-10-16T06:01:19;23.10;;;8.77;;
28724;SDS011;43472;48.980;9.646;2022-10-16T06:06:26;22.35;;;8.18;;
28724;SDS011;43472;48.980;9.646;2022-10-16T06:11:29;15.68;;;7.10;;
28724;SDS011;43472;48.980;9.646;2022-10-16T06:16:33;18.33;;;7.05;;
28724;SDS011;43472;48.980;9.646;2022-10-16T06:21:38;17.30;;;7.90;;
28724;SDS011;43472;48.980;9.646;2022-10-16T06:26:40;21.42;;;9.45;;
28724;SDS011;43472;48.980;9.646;2022-10-16T06:31:42;19.88;;;8.43;;
28724;SDS011;43472;48.980;9.646;2022-10-16T06:36:44;19.33;;;7.18;;
28724;SDS011;43472;48.980;9.646;2022-10-16T06:41:46;17.70;;;7.50;;
28724;SDS011;43472;48.980;9.646;2022-10-16T06:46:48;15.05;;;7.55;;
28724;SDS011;43472;48.980;9.646;2022-10-16T06:51:49;21.90;;;10.35;;
28724;SDS011;43472;48.980;9.646;2022-10-16T06:56:51;20.73;;;8.00;;
28724;SDS011;43472;48.980;9.646;2022-10-16T07:01:55;24.10;;;9.63;;
28724;SDS011;43472;48.980;9.646;2022-10-16T07:06:57;8.40;;;4.63;;
28724;SDS011;43472;48.980;9.646;2022-10-16T07:12:01;3.60;;;2.55;;
28724;SDS011;43472;48.980;9.646;2022-10-16T07:17:03;2.78;;;1.83;;
28724;SDS011;43472;48.980;9.646;2022-10-16T07:22:05;5.60;;;2.50;;
28724;SDS011;43472;48.980;9.646;2022-10-16T07:27:07;42.22;;;16.70;;
28724;SDS011;43472;48.980;9.646;2022-10-16T07:32:09;36.03;;;19.58;;
28724;SDS011;43472;48.980;9.646;2022-10-16T07:37:11;27.00;;;13.63;;
28724;SDS011;43472;48.980;9.646;2022-10-16T07:42:12;16.77;;;7.38;;
28724;SDS011;43472;48.980;9.646;2022-10-16T07:47:14;12.07;;;6.18;;
28724;SDS011;43472;48.980;9.646;2022-10-16T07:52:16;10.80;;;6.53;;
28724;SDS011;43472;48.980;9.646;2022-10-16T07:57:19;15.10;;;6.20;;
28724;SDS011;43472;48.980;9.646;2022-10-16T08:02:21;12.95;;;5.70;;
28724;SDS011;43472;48.980;9.646;2022-10-16T08:07:22;10.35;;;6.18;;
28724;SDS011;43472;48.980;9.646;2022-10-16T08:12:25;10.85;;;5.35;;
28724;SDS011;43472;48.980;9.646;2022-10-16T08:17:27;10.15;;;5.93;;
28724;SDS011;43472;48.980;9.646;2022-10-16T08:22:29;12.05;;;5.32;;
28724;SDS011;43472;48.980;9.646;2022-10-16T08:27:31;16.00;;;5.70;;
28724;SDS011;43472;48.980;9.646;2022-10-16T08:32:35;10.95;;;6.70;;
28724;SDS011;43472;48.980;9.646;2022-10-16T08:37:37;12.32;;;4.20;;
28724;SDS011;43472;48.980;9.646;2022-10-16T08:42:48;9.10;;;3.85;;
28724;SDS011;43472;48.980;9.646;2022-10-16T08:48:00;21.65;;;11.57;;
28724;SDS011;43472;48.980;9.646;2022-10-16T08:53:07;8.00;;;3.55;;
28724;SDS011;43472;48.980;9.646;2022-10-16T08:58:28;32.88;;;13.13;;
28724;SDS011;43472;48.980;9.646;2022-10-16T09:14:31;9.90;;;2.75;;
28724;SDS011;43472;48.980;9.646;2022-10-16T09:19:38;11.23;;;5.20;;
28724;SDS011;43472;48.980;9.646;2022-10-16T09:24:47;13.98;;;5.95;;
28724;SDS011;43472;48.980;9.646;2022-10-16T09:30:16;20.52;;;10.48;;
28724;SDS011;43472;48.980;9.646;2022-10-16T09:35:20;15.60;;;5.53;;
28724;SDS011;43472;48.980;9.646;2022-10-16T09:40:30;11.30;;;5.18;;
28724;SDS011;43472;48.980;9.646;2022-10-16T09:45:37;13.00;;;5.13;;
28724;SDS011;43472;48.980;9.646;2022-10-16T09:50:39;24.08;;;10.60;;
28724;SDS011;43472;48.980;9.646;2022-10-16T09:55:48;8.60;;;3.15;;
28724;SDS011;43472;48.980;9.646;2022-10-16T10:00:52;6.05;;;2.03;;
28724;SDS011;43472;48.980;9.646;2022-10-16T10:05:55;2.55;;;1.20;;
28724;SDS011;43472;48.980;9.646;2022-10-16T10:11:02;5.47;;;1.90;;
28724;SDS011;43472;48.980;9.646;2022-10-16T10:16:04;4.68;;;2.50;;
28724;SDS011;43472;48.980;9.646;2022-10-16T10:21:12;7.90;;;3.63;;
28724;SDS011;43472;48.980;9.646;2022-10-16T10:26:18;3.47;;;0.73;;
28724;SDS011;43472;48.980;9.646;2022-10-16T10:31:26;7.82;;;2.35;;
28724;SDS011;43472;48.980;9.646;2022-10-16T10:36:41;2.45;;;1.20;;
28724;SDS011;43472;48.980;9.646;2022-10-16T10:58:01;2.65;;;0.65;;
28724;SDS011;43472;48.980;9.646;2022-10-16T11:04:36;4.97;;;0.68;;
28724;SDS011;43472;48.980;9.646;2022-10-16T11:09:20;5.07;;;0.50;;
28724;SDS011;43472;48.980;9.646;2022-10-16T11:19:35;6.28;;;1.23;;
28724;SDS011;43472;48.980;9.646;2022-10-16T11:24:45;1.08;;;0.60;;
28724;SDS011;43472;48.980;9.646;2022-10-16T11:29:59;3.22;;;0.75;;
28724;SDS011;43472;48.980;9.646;2022-10-16T11:35:08;1.70;;;0.90;;
28724;SDS011;43472;48.980;9.646;2022-10-16T11:40:25;2.28;;;0.68;;
28724;SDS011;43472;48.980;9.646;2022-10-16T11:51:16;4.45;;;0.70;;
28724;SDS011;43472;48.980;9.646;2022-10-16T11:56:26;11.32;;;2.15;;
28724;SDS011;43472;48.980;9.646;2022-10-16T12:12:27;6.28;;;1.02;;
28724;SDS011;43472;48.980;9.646;2022-10-16T12:17:38;1.75;;;0.88;;
28724;SDS011;43472;48.980;9.646;2022-10-16T12:33:22;5.60;;;1.17;;
28724;SDS011;43472;48.980;9.646;2022-10-16T12:38:37;10.10;;;1.40;;
28724;SDS011;43472;48.980;9.646;2022-10-16T12:43:48;2.15;;;0.95;;
28724;SDS011;43472;48.980;9.646;2022-10-16T12:48:50;4.50;;;3.15;;
28724;SDS011;43472;48.980;9.646;2022-10-16T12:54:12;1.83;;;0.73;;
28724;SDS011;43472;48.980;9.646;2022-10-16T13:04:22;3.00;;;0.80;;
28724;SDS011;43472;48.980;9.646;2022-10-16T13:30:52;2.17;;;0.60;;
28724;SDS011;43472;48.980;9.646;2022-10-16T13:35:56;7.25;;;0.80;;
28724;SDS011;43472;48.980;9.646;2022-10-16T13:41:05;2.60;;;0.60;;
28724;SDS011;43472;48.980;9.646;2022-10-16T13:46:16;4.35;;;1.73;;
28724;SDS011;43472;48.980;9.646;2022-10-16T13:51:22;4.03;;;1.30;;
28724;SDS011;43472;48.980;9.646;2022-10-16T13:56:29;9.80;;;1.73;;
28724;SDS011;43472;48.980;9.646;2022-10-16T14:01:34;9.15;;;3.72;;
28724;SDS011;43472;48.980;9.646;2022-10-16T14:06:44;6.80;;;3.05;;
28724;SDS011;43472;48.980;9.646;2022-10-16T14:11:50;13.45;;;4.50;;
28724;SDS011;43472;48.980;9.646;2022-10-16T14:17:02;8.75;;;2.60;;
28724;SDS011;43472;48.980;9.646;2022-10-16T14:22:20;17.23;;;3.10;;
28724;SDS011;43472;48.980;9.646;2022-10-16T14:27:36;7.68;;;2.80;;
28724;SDS011;43472;48.980;9.646;2022-10-16T14:32:39;9.02;;;1.45;;
28724;SDS011;43472;48.980;9.646;2022-10-16T14:37:43;11.38;;;1.00;;
28724;SDS011;43472;48.980;9.646;2022-10-16T14:42:45;6.65;;;1.17;;
28724;SDS011;43472;48.980;9.646;2022-10-16T14:47:48;7.28;;;1.80;;
28724;SDS011;43472;48.980;9.646;2022-10-16T14:52:53;9.10;;;1.92;;
28724;SDS011;43472;48.980;9.646;2022-10-16T14:57:55;5.40;;;1.80;;
28724;SDS011;43472;48.980;9.646;2022-10-16T15:03:01;8.57;;;1.23;;
28724;SDS011;43472;48.980;9.646;2022-10-16T15:08:02;4.72;;;1.40;;
28724;SDS011;43472;48.980;9.646;2022-10-16T15:13:05;4.70;;;1.80;;
28724;SDS011;43472;48.980;9.646;2022-10-16T15:18:09;5.57;;;2.50;;
28724;SDS011;43472;48.980;9.646;2022-10-16T15:23:18;5.47;;;1.98;;
28724;SDS011;43472;48.980;9.646;2022-10-16T15:28:23;7.47;;;2.40;;
28724;SDS011;43472;48.980;9.646;2022-10-16T15:33:28;8.77;;;2.20;;
28724;SDS011;43472;48.980;9.646;2022-10-16T15:38:39;6.65;;;3.08;;
28724;SDS011;43472;48.980;9.646;2022-10-16T15:43:41;6.47;;;2.67;;
28724;SDS011;43472;48.980;9.646;2022-10-16T15:48:46;14.55;;;3.90;;
28724;SDS011;43472;48.980;9.646;2022-10-16T15:53:49;9.85;;;2.17;;
28724;SDS011;43472;48.980;9.646;2022-10-16T15:58:52;8.35;;;2.92;;
28724;SDS011;43472;48.980;9.646;2022-10-16T16:03:55;11.90;;;2.17;;
28724;SDS011;43472;48.980;9.646;2022-10-16T16:08:57;25.08;;;2.50;;
28724;SDS011;43472;48.980;9.646;2022-10-16T16:14:00;29.67;;;2.78;;
28724;SDS011;43472;48.980;9.646;2022-10-16T16:19:03;2.38;;;1.58;;
28724;SDS011;43472;48.980;9.646;2022-10-16T16:24:11;15.30;;;2.10;;
28724;SDS011;43472;48.980;9.646;2022-10-16T16:29:13;13.43;;;2.00;;
28724;SDS011;43472;48.980;9.646;2022-10-16T16:34:16;14.68;;;3.22;;
28724;SDS011;43472;48.980;9.646;2022-10-16T16:39:18;17.27;;;2.45;;
28724;SDS011;43472;48.980;9.646;2022-10-16T16:44:19;4.65;;;1.67;;
28724;SDS011;43472;48.980;9.646;2022-10-16T16:49:21;10.57;;;3.00;;
28724;SDS011;43472;48.980;9.646;2022-10-16T16:54:23;10.82;;;4.05;;
28724;SDS011;43472;48.980;9.646;2022-10-16T16:59:25;12.90;;;3.22;;
28724;SDS011;43472;48.980;9.646;2022-10-16T17:04:26;12.45;;;4.05;;
28724;SDS011;43472;48.980;9.646;2022-10-16T17:09:28;56.65;;;27.77;;
28724;SDS011;43472;48.980;9.646;2022-10-16T17:14:32;22.30;;;11.88;;
28724;SDS011;43472;48.980;9.646;2022-10-16T17:19:34;22.33;;;7.03;;
28724;SDS011;43472;48.980;9.646;2022-10-16T17:24:36;22.45;;;7.05;;
28724;SDS011;43472;48.980;9.646;2022-10-16T17:29:37;24.70;;;8.50;;
28724;SDS011;43472;48.980;9.646;2022-10-16T17:34:39;18.85;;;7.10;;
28724;SDS011;43472;48.980;9.646;2022-10-16T17:39:41;20.58;;;7.55;;
28724;SDS011;43472;48.980;9.646;2022-10-16T17:44:43;20.00;;;7.45;;
28724;SDS011;43472;48.980;9.646;2022-10-16T17:49:44;15.95;;;6.18;;
28724;SDS011;43472;48.980;9.646;2022-10-16T17:54:48;19.65;;;5.28;;
28724;SDS011;43472;48.980;9.646;2022-10-16T17:59:52;26.27;;;4.60;;
28724;SDS011;43472;48.980;9.646;2022-10-16T18:04:55;17.95;;;2.22;;
28724;SDS011;43472;48.980;9.646;2022-10-16T18:09:56;10.85;;;2.38;;
28724;SDS011;43472;48.980;9.646;2022-10-16T18:20:20;11.77;;;2.55;;
28724;SDS011;43472;48.980;9.646;2022-10-16T18:25:22;32.65;;;7.68;;
28724;SDS011;43472;48.980;9.646;2022-10-16T18:30:23;16.25;;;2.90;;
28724;SDS011;43472;48.980;9.646;2022-10-16T18:35:25;6.00;;;2.38;;
28724;SDS011;43472;48.980;9.646;2022-10-16T18:40:27;13.65;;;3.28;;
28724;SDS011;43472;48.980;9.646;2022-10-16T18:45:29;7.32;;;2.38;;
28724;SDS011;43472;48.980;9.646;2022-10-16T18:50:31;22.38;;;2.47;;
28724;SDS011;43472;48.980;9.646;2022-10-16T18:55:33;11.68;;;2.28;;
28724;SDS011;43472;48.980;9.646;2022-10-16T19:00:35;23.95;;;3.50;;
28724;SDS011;43472;48.980;9.646;2022-10-16T19:05:36;20.20;;;3.50;;
28724;SDS011;43472;48.980;9.646;2022-10-16T19:10:38;9.95;;;3.40;;
28724;SDS011;43472;48.980;9.646;2022-10-16T19:15:42;5.80;;;2.65;;
28724;SDS011;43472;48.980;9.646;2022-10-16T19:21:00;22.75;;;2.88;;
28724;SDS011;43472;48.980;9.646;2022-10-16T19:26:03;20.25;;;3.47;;
28724;SDS011;43472;48.980;9.646;2022-10-16T19:31:17;6.32;;;3.22;;
28724;SDS011;43472;48.980;9.646;2022-10-16T19:36:22;14.23;;;4.18;;
28724;SDS011;43472;48.980;9.646;2022-10-16T19:41:24;13.80;;;3.80;;
28724;SDS011;43472;48.980;9.646;2022-10-16T19:46:26;9.25;;;3.95;;
28724;SDS011;43472;48.980;9.646;2022-10-16T19:51:29;26.58;;;4.00;;
28724;SDS011;43472;48.980;9.646;2022-10-16T19:56:32;12.20;;;3.58;;
28724;SDS011;43472;48.980;9.646;2022-10-16T20:01:35;7.85;;;2.90;;
28724;SDS011;43472;48.980;9.646;2022-10-16T20:06:37;41.22;;;15.52;;
28724;SDS011;43472;48.980;9.646;2022-10-16T20:11:39;27.23;;;11.30;;
28724;SDS011;43472;48.980;9.646;2022-10-16T20:16:41;24.83;;;7.88;;
28724;SDS011;43472;48.980;9.646;2022-10-16T20:21:43;19.48;;;4.82;;
28724;SDS011;43472;48.980;9.646;2022-10-16T20:26:45;17.58;;;4.40;;
28724;SDS011;43472;48.980;9.646;2022-10-16T20:31:47;47.97;;;24.85;;
28724;SDS011;43472;48.980;9.646;2022-10-16T20:36:49;31.55;;;13.02;;
28724;SDS011;43472;48.980;9.646;2022-10-16T20:41:50;24.65;;;11.13;;
28724;SDS011;43472;48.980;9.646;2022-10-16T20:46:53;26.48;;;8.25;;
28724;SDS011;43472;48.980;9.646;2022-10-16T20:51:55;16.08;;;6.57;;
28724;SDS011;43472;48.980;9.646;2022-10-16T20:56:57;15.60;;;3.45;;
28724;SDS011;43472;48.980;9.646;2022-10-16T21:01:59;14.07;;;3.63;;
28724;SDS011;43472;48.980;9.646;2022-10-16T21:07:01;11.88;;;4.60;;
28724;SDS011;43472;48.980;9.646;2022-10-16T21:12:05;21.05;;;8.10;;
28724;SDS011;43472;48.980;9.646;2022-10-16T21:17:06;27.63;;;11.55;;
28724;SDS011;43472;48.980;9.646;2022-10-16T21:22:08;13.20;;;5.18;;
28724;SDS011;43472;48.980;9.646;2022-10-16T21:27:10;12.80;;;2.88;;
28724;SDS011;43472;48.980;9.646;2022-10-16T21:32:12;5.70;;;2.40;;
28724;SDS011;43472;48.980;9.646;2022-10-16T21:37:14;5.40;;;2.70;;
28724;SDS011;43472;48.980;9.646;2022-10-16T21:42:16;16.10;;;5.47;;
28724;SDS011;43472;48.980;9.646;2022-10-16T21:47:18;12.65;;;4.13;;
28724;SDS011;43472;48.980;9.646;2022-10-16T21:52:19;5.68;;;3.33;;
28724;SDS011;43472;48.980;9.646;2022-10-16T21:57:21;18.88;;;3.72;;
28724;SDS011;43472;48.980;9.646;2022-10-16T22:02:23;13.05;;;3.97;;
28724;SDS011;43472;48.980;9.646;2022-10-16T22:07:24;6.70;;;4.35;;
28724;SDS011;43472;48.980;9.646;2022-10-16T22:12:27;9.50;;;3.72;;
28724;SDS011;43472;48.980;9.646;2022-10-16T22:17:29;10.65;;;2.83;;
28724;SDS011;43472;48.980;9.646;2022-10-16T22:22:31;13.18;;;3.28;;
28724;SDS011;43472;48.980;9.646;2022-10-16T22:27:33;13.10;;;3.80;;
28724;SDS011;43472;48.980;9.646;2022-10-16T22:32:35;13.00;;;4.97;;
28724;SDS011;43472;48.980;9.646;2022-10-16T22:37:36;12.25;;;4.20;;
28724;SDS011;43472;48.980;9.646;2022-10-16T22:42:38;12.35;;;3.88;;
28724;SDS011;43472;48.980;9.646;2022-10-16T22:47:40;16.23;;;4.18;;
28724;SDS011;43472;48.980;9.646;2022-10-16T22:52:42;19.45;;;3.97;;
28724;SDS011;43472;48.980;9.646;2022-10-16T22:57:44;7.53;;;3.10;;
28724;SDS011;43472;48.980;9.646;2022-10-16T23:02:45;17.92;;;2.88;;
28724;SDS011;43472;48.980;9.646;2022-10-16T23:07:47;8.68;;;3.08;;
28724;SDS011;43472;48.980;9.646;2022-10-16T23:12:49;10.07;;;2.92;;
28724;SDS011;43472;48.980;9.646;2022-10-16T23:17:52;9.15;;;4.15;;
28724;SDS011;43472;48.980;9.646;2022-10-16T23:22:53;17.42;;;2.60;;
28724;SDS011;43472;48.980;9.646;2022-10-16T23:27:55;22.67;;;8.18;;
28724;SDS011;43472;48.980;9.646;2022-10-16T23:32:57;17.35;;;4.93;;
28724;SDS011;43472;48.980;9.646;2022-10-16T23:37:59;25.38;;;7.35;;
28724;SDS011;43472;48.980;9.646;2022-10-16T23:43:01;31.27;;;10.27;;
28724;SDS011;43472;48.980;9.646;2022-10-16T23:48:03;26.52;;;9.57;;
28724;SDS011;43472;48.980;9.646;2022-10-16T23:53:05;25.90;;;11.13;;
28724;SDS011;43472;48.980;9.646;2022-10-16T23:58:10;53.63;;;20.35;;
